Time,TemperatureF,DewpointF,PressureIn,WindDirection,WindDirectionDegrees,WindSpeedMPH,WindSpeedGustMPH,Humidity,HourlyPrecipIn,Conditions,Clouds,dailyrainin,SoftwareType,DateUTC
2013-04-28 00:02:00,60.6,28.2,29.80,ESE,109,0.0,0.0,29,0.00,,,0.00,meteohub,2013-04-28 06:02:00,
2013-04-28 00:07:00,60.6,28.9,29.80,ESE,109,0.0,0.0,30,0.00,,,0.00,meteohub,2013-04-28 06:07:00,
2013-04-28 00:12:00,60.6,28.2,29.80,ESE,109,0.0,0.0,29,0.00,,,0.00,meteohub,2013-04-28 06:12:00,
2013-04-28 00:17:00,60.6,26.4,29.80,ESE,109,0.0,0.0,27,0.00,,,0.00,meteohub,2013-04-28 06:17:00,
2013-04-28 00:23:00,60.6,28.2,29.80,ESE,109,0.0,0.0,29,0.00,,,0.00,meteohub,2013-04-28 06:23:00,
2013-04-28 00:28:00,60.6,27.3,29.80,ESE,109,0.0,0.0,28,0.00,,,0.00,meteohub,2013-04-28 06:28:00,
2013-04-28 00:33:00,60.3,25.2,29.80,ESE,109,0.0,0.0,26,0.00,,,0.00,meteohub,2013-04-28 06:33:00,
2013-04-28 00:38:00,60.1,25.2,29.80,ESE,109,0.0,0.0,26,0.00,,,0.00,meteohub,2013-04-28 06:38:00,
2013-04-28 00:44:00,59.7,19.8,29.80,ESE,110,0.0,0.0,21,0.00,,,0.00,meteohub,2013-04-28 06:44:00,
2013-04-28 00:49:00,59.5,21.7,29.80,ESE,110,0.0,0.0,23,0.00,,,0.00,meteohub,2013-04-28 06:49:00,
2013-04-28 00:54:00,59.7,21.9,29.80,ESE,110,0.0,0.0,23,0.00,,,0.00,meteohub,2013-04-28 06:54:00,
2013-04-28 00:59:00,59.5,21.7,29.80,ESE,110,0.0,0.0,23,0.00,,,0.00,meteohub,2013-04-28 06:59:00,
2013-04-28 01:04:00,59.4,20.5,29.80,ESE,110,0.0,0.0,22,0.00,,,0.00,meteohub,2013-04-28 07:04:00,
2013-04-28 01:10:00,59.4,19.4,29.80,ESE,110,0.0,0.0,21,0.00,,,0.00,meteohub,2013-04-28 07:10:00,
2013-04-28 01:15:00,59.4,22.6,29.80,ESE,110,0.0,0.0,24,0.00,,,0.00,meteohub,2013-04-28 07:15:00,
2013-04-28 01:20:00,59.0,22.3,29.80,ESE,111,0.0,0.0,24,0.00,,,0.00,meteohub,2013-04-28 07:20:00,
2013-04-28 01:25:00,58.6,23.9,29.80,ESE,111,0.0,0.0,26,0.00,,,0.00,meteohub,2013-04-28 07:25:00,
2013-04-28 01:31:00,58.5,21.7,29.80,ESE,111,0.0,0.0,24,0.00,,,0.00,meteohub,2013-04-28 07:31:00,
2013-04-28 01:36:00,58.5,21.7,29.80,ESE,111,0.0,0.0,24,0.00,,,0.00,meteohub,2013-04-28 07:36:00,
2013-04-28 01:41:00,58.5,21.7,29.80,ESE,111,0.0,0.0,24,0.00,,,0.00,meteohub,2013-04-28 07:41:00,
2013-04-28 01:46:00,58.3,22.6,29.80,ESE,111,0.0,0.0,25,0.00,,,0.00,meteohub,2013-04-28 07:46:00,
2013-04-28 01:51:00,57.9,21.4,29.79,ESE,111,0.0,0.0,24,0.00,,,0.00,meteohub,2013-04-28 07:51:00,
2013-04-28 01:57:00,57.7,23.9,29.79,ESE,111,0.0,0.0,27,0.00,,,0.00,meteohub,2013-04-28 07:57:00,
2013-04-28 02:02:00,57.6,23.9,29.79,ESE,111,0.0,0.0,27,0.00,,,0.00,meteohub,2013-04-28 08:02:00,
2013-04-28 02:07:00,57.4,24.6,29.79,ESE,111,0.0,0.0,28,0.00,,,0.00,meteohub,2013-04-28 08:07:00,
2013-04-28 02:12:00,57.4,24.6,29.79,ESE,111,0.0,0.0,28,0.00,,,0.00,meteohub,2013-04-28 08:12:00,
2013-04-28 02:18:00,57.4,25.3,29.79,ESE,111,0.0,0.0,29,0.00,,,0.00,meteohub,2013-04-28 08:18:00,
2013-04-28 02:23:00,57.4,25.3,29.79,ESE,111,0.0,0.0,29,0.00,,,0.00,meteohub,2013-04-28 08:23:00,
2013-04-28 02:28:00,57.4,26.2,29.79,ESE,111,0.0,0.0,30,0.00,,,0.00,meteohub,2013-04-28 08:28:00,
2013-04-28 02:33:00,57.0,27.5,29.79,ESE,111,0.0,0.0,32,0.00,,,0.00,meteohub,2013-04-28 08:33:00,
2013-04-28 02:38:00,56.7,27.9,29.79,ESE,111,0.0,0.0,33,0.00,,,0.00,meteohub,2013-04-28 08:38:00,
2013-04-28 02:44:00,56.3,28.2,29.79,ESE,111,0.0,0.0,34,0.00,,,0.00,meteohub,2013-04-28 08:44:00,
2013-04-28 02:49:00,55.9,25.7,29.78,ESE,111,0.0,0.0,31,0.00,,,0.00,meteohub,2013-04-28 08:49:00,
2013-04-28 02:54:00,55.6,26.2,29.79,ESE,111,0.0,0.0,32,0.00,,,0.00,meteohub,2013-04-28 08:54:00,
2013-04-28 02:59:00,55.4,26.1,29.78,ESE,111,0.0,0.0,32,0.00,,,0.00,meteohub,2013-04-28 08:59:00,
2013-04-28 03:05:00,55.4,25.3,29.79,ESE,111,0.0,0.0,31,0.00,,,0.00,meteohub,2013-04-28 09:05:00,
2013-04-28 03:10:00,55.2,25.2,29.79,ESE,111,0.0,0.0,31,0.00,,,0.00,meteohub,2013-04-28 09:10:00,
2013-04-28 03:15:00,55.2,25.2,29.79,ESE,111,0.0,0.0,31,0.00,,,0.00,meteohub,2013-04-28 09:15:00,
2013-04-28 03:20:00,55.2,24.3,29.78,ESE,111,0.0,0.0,30,0.00,,,0.00,meteohub,2013-04-28 09:20:00,
2013-04-28 03:25:00,55.0,24.1,29.78,ESE,111,0.0,0.0,30,0.00,,,0.00,meteohub,2013-04-28 09:25:00,
2013-04-28 03:31:00,55.2,24.3,29.78,ESE,111,0.0,0.0,30,0.00,,,0.00,meteohub,2013-04-28 09:31:00,
2013-04-28 03:36:00,55.2,23.5,29.78,ESE,111,0.0,0.0,29,0.00,,,0.00,meteohub,2013-04-28 09:36:00,
2013-04-28 03:41:00,55.0,23.4,29.78,ESE,111,0.0,0.0,29,0.00,,,0.00,meteohub,2013-04-28 09:41:00,
2013-04-28 03:46:00,55.2,26.6,29.78,ESE,111,0.0,0.0,33,0.00,,,0.00,meteohub,2013-04-28 09:46:00,
2013-04-28 03:52:00,55.8,26.4,29.78,ESE,111,0.0,0.0,32,0.00,,,0.00,meteohub,2013-04-28 09:52:00,
2013-04-28 03:57:00,55.9,26.4,29.78,ESE,111,0.0,0.0,32,0.00,,,0.00,meteohub,2013-04-28 09:57:00,
2013-04-28 04:02:00,55.8,26.4,29.78,ESE,111,0.0,0.0,32,0.00,,,0.00,meteohub,2013-04-28 10:02:00,
2013-04-28 04:07:00,55.8,26.4,29.78,SSE,154,0.0,0.0,32,0.00,,,0.00,meteohub,2013-04-28 10:07:00,
2013-04-28 04:12:00,55.9,26.4,29.78,SSE,159,0.0,0.0,32,0.00,,,0.00,meteohub,2013-04-28 10:12:00,
2013-04-28 04:18:00,55.9,25.7,29.78,SSE,159,0.0,0.0,31,0.00,,,0.00,meteohub,2013-04-28 10:18:00,
2013-04-28 04:23:00,55.8,26.4,29.78,SSE,159,0.0,0.0,32,0.00,,,0.00,meteohub,2013-04-28 10:23:00,
2013-04-28 04:28:00,55.6,27.0,29.78,SSE,159,0.0,0.0,33,0.00,,,0.00,meteohub,2013-04-28 10:28:00,
2013-04-28 04:33:00,55.0,27.9,29.78,SSE,159,0.0,0.0,35,0.00,,,0.00,meteohub,2013-04-28 10:33:00,
2013-04-28 04:39:00,54.7,27.5,29.78,SSE,159,0.0,0.0,35,0.00,,,0.00,meteohub,2013-04-28 10:39:00,
2013-04-28 04:44:00,54.1,26.4,29.78,SSE,159,0.0,0.0,34,0.00,,,0.00,meteohub,2013-04-28 10:44:00,
2013-04-28 04:49:00,54.0,25.5,29.78,SSE,159,0.0,0.0,33,0.00,,,0.00,meteohub,2013-04-28 10:49:00,
2013-04-28 04:54:00,53.8,25.3,29.78,SSE,159,0.0,0.0,33,0.00,,,0.00,meteohub,2013-04-28 10:54:00,
2013-04-28 05:00:00,53.8,26.1,29.78,SSE,159,0.0,0.0,34,0.00,,,0.00,meteohub,2013-04-28 11:00:00,
2013-04-28 05:05:00,53.8,26.8,29.78,SSE,161,0.0,0.0,35,0.00,,,0.00,meteohub,2013-04-28 11:05:00,
2013-04-28 05:10:00,54.0,24.8,29.78,South,179,0.0,0.0,32,0.00,,,0.00,meteohub,2013-04-28 11:10:00,
2013-04-28 05:15:00,54.0,27.7,29.79,South,179,0.0,0.0,36,0.00,,,0.00,meteohub,2013-04-28 11:15:00,
2013-04-28 05:21:00,53.8,23.0,29.78,South,179,0.0,0.0,30,0.00,,,0.00,meteohub,2013-04-28 11:21:00,
2013-04-28 05:26:00,53.8,24.6,29.79,South,180,0.0,0.0,32,0.00,,,0.00,meteohub,2013-04-28 11:26:00,
2013-04-28 05:31:00,54.0,24.1,29.79,South,180,0.0,0.0,31,0.00,,,0.00,meteohub,2013-04-28 11:31:00,
2013-04-28 05:36:00,54.0,21.6,29.79,South,186,0.0,0.0,28,0.00,,,0.00,meteohub,2013-04-28 11:36:00,
2013-04-28 05:41:00,54.1,21.7,29.80,South,188,0.0,0.0,28,0.00,,,0.00,meteohub,2013-04-28 11:41:00,
2013-04-28 05:47:00,54.1,22.6,29.80,South,188,0.0,0.0,29,0.00,,,0.00,meteohub,2013-04-28 11:47:00,
2013-04-28 05:52:00,54.1,22.6,29.81,South,188,0.0,0.0,29,0.00,,,0.00,meteohub,2013-04-28 11:52:00,
2013-04-28 05:57:00,54.0,24.1,29.81,South,188,0.0,0.0,31,0.00,,,0.00,meteohub,2013-04-28 11:57:00,
2013-04-28 06:02:00,54.1,22.6,29.81,South,179,0.0,0.0,29,0.00,,,0.00,meteohub,2013-04-28 12:02:00,
2013-04-28 06:08:00,54.1,20.8,29.81,South,179,0.0,0.0,27,0.00,,,0.00,meteohub,2013-04-28 12:08:00,
2013-04-28 06:13:00,54.3,20.1,29.81,SSE,167,0.0,0.0,26,0.00,,,0.00,meteohub,2013-04-28 12:13:00,
2013-04-28 06:18:00,54.3,20.1,29.81,SSE,167,0.0,0.0,26,0.00,,,0.00,meteohub,2013-04-28 12:18:00,
2013-04-28 06:23:00,54.3,20.1,29.81,ESE,109,0.0,0.0,26,0.00,,,0.00,meteohub,2013-04-28 12:23:00,
2013-04-28 06:29:00,54.3,19.2,29.81,ESE,109,0.0,0.0,25,0.00,,,0.00,meteohub,2013-04-28 12:29:00,
2013-04-28 06:34:00,54.5,20.3,29.82,ESE,109,0.0,0.0,26,0.00,,,0.00,meteohub,2013-04-28 12:34:00,
2013-04-28 06:39:00,54.7,21.4,29.82,ESE,109,0.0,0.0,27,0.00,,,0.00,meteohub,2013-04-28 12:39:00,
2013-04-28 06:45:00,55.0,20.8,29.82,ESE,109,0.0,0.0,26,0.00,,,0.00,meteohub,2013-04-28 12:45:00,
2013-04-28 06:50:00,55.4,22.8,29.82,ESE,109,0.0,0.0,28,0.00,,,0.00,meteohub,2013-04-28 12:50:00,
2013-04-28 06:55:00,55.8,22.3,29.83,ESE,109,0.0,0.0,27,0.00,,,0.00,meteohub,2013-04-28 12:55:00,
2013-04-28 07:00:00,55.9,23.4,29.83,ESE,109,0.0,0.0,28,0.00,,,0.00,meteohub,2013-04-28 13:00:00,
2013-04-28 07:05:00,56.1,21.7,29.83,ESE,118,0.0,0.0,26,0.00,,,0.00,meteohub,2013-04-28 13:05:00,
2013-04-28 07:11:00,56.1,20.8,29.83,ESE,121,0.0,0.0,25,0.00,,,0.00,meteohub,2013-04-28 13:11:00,
2013-04-28 07:16:00,56.1,21.7,29.83,ESE,121,0.0,0.0,26,0.00,,,0.00,meteohub,2013-04-28 13:16:00,
2013-04-28 07:21:00,56.5,21.9,29.83,ESE,123,0.0,0.0,26,0.00,,,0.00,meteohub,2013-04-28 13:21:00,
2013-04-28 07:26:00,56.8,23.2,29.83,ESE,123,0.0,0.0,27,0.00,,,0.00,meteohub,2013-04-28 13:26:00,
2013-04-28 07:32:00,57.4,21.9,29.83,SSW,202,0.0,0.0,25,0.00,,,0.00,meteohub,2013-04-28 13:32:00,
2013-04-28 07:37:00,57.6,23.0,29.84,SSW,202,0.0,0.0,26,0.00,,,0.00,meteohub,2013-04-28 13:37:00,
2013-04-28 07:42:00,58.1,22.5,29.84,SSW,207,0.0,0.0,25,0.00,,,0.00,meteohub,2013-04-28 13:42:00,
2013-04-28 07:47:00,58.3,23.5,29.84,SSW,207,0.0,0.0,26,0.00,,,0.00,meteohub,2013-04-28 13:47:00,
2013-04-28 07:52:00,58.8,24.1,29.84,SSW,207,0.0,0.0,26,0.00,,,0.00,meteohub,2013-04-28 13:52:00,
2013-04-28 07:57:00,59.4,24.4,29.84,SSW,207,0.0,0.0,26,0.00,,,0.00,meteohub,2013-04-28 13:57:00,
2013-04-28 08:02:00,59.9,25.0,29.84,SSW,207,0.0,0.0,26,0.00,,,0.00,meteohub,2013-04-28 14:02:00,
2013-04-28 08:07:00,60.3,24.3,29.84,SW,218,0.0,0.0,25,0.00,,,0.00,meteohub,2013-04-28 14:07:00,
2013-04-28 08:12:00,60.6,24.6,29.84,SW,218,0.0,0.0,25,0.00,,,0.00,meteohub,2013-04-28 14:12:00,
2013-04-28 08:17:00,61.3,24.3,29.84,SW,218,0.0,0.0,24,0.00,,,0.00,meteohub,2013-04-28 14:17:00,
2013-04-28 08:22:00,62.1,24.8,29.84,SW,218,0.0,0.0,24,0.00,,,0.00,meteohub,2013-04-28 14:22:00,
2013-04-28 08:27:00,62.8,25.5,29.84,SW,218,0.0,0.0,24,0.00,,,0.00,meteohub,2013-04-28 14:27:00,
2013-04-28 08:32:00,63.3,27.0,29.84,SW,218,0.0,0.0,25,0.00,,,0.00,meteohub,2013-04-28 14:32:00,
2013-04-28 08:37:00,63.9,26.4,29.83,SW,218,0.0,0.0,24,0.00,,,0.00,meteohub,2013-04-28 14:37:00,
2013-04-28 08:42:00,64.0,26.6,29.84,SW,218,0.0,0.0,24,0.00,,,0.00,meteohub,2013-04-28 14:42:00,
2013-04-28 08:47:00,64.6,25.9,29.84,SW,225,0.0,0.0,23,0.00,,,0.00,meteohub,2013-04-28 14:47:00,
2013-04-28 08:52:00,65.1,25.3,29.84,SW,229,0.0,0.0,22,0.00,,,0.00,meteohub,2013-04-28 14:52:00,
2013-04-28 08:57:00,65.7,25.7,29.84,SW,235,0.0,0.0,22,0.00,,,0.00,meteohub,2013-04-28 14:57:00,
2013-04-28 09:02:00,66.0,27.1,29.84,WSW,237,0.0,0.0,23,0.00,,,0.00,meteohub,2013-04-28 15:02:00,
2013-04-28 09:07:00,66.7,27.7,29.84,WSW,237,0.0,0.0,23,0.00,,,0.00,meteohub,2013-04-28 15:07:00,
2013-04-28 09:12:00,67.8,28.6,29.84,WSW,237,0.0,0.0,23,0.00,,,0.00,meteohub,2013-04-28 15:12:00,
2013-04-28 09:17:00,69.1,28.6,29.84,WSW,237,0.0,0.0,22,0.00,,,0.00,meteohub,2013-04-28 15:17:00,
2013-04-28 09:22:00,69.4,27.9,29.84,West,267,0.0,0.0,21,0.00,,,0.00,meteohub,2013-04-28 15:22:00,
2013-04-28 09:27:00,69.3,27.7,29.84,West,269,0.0,0.0,21,0.00,,,0.00,meteohub,2013-04-28 15:27:00,
2013-04-28 09:32:00,69.4,27.9,29.84,West,266,0.0,0.0,21,0.00,,,0.00,meteohub,2013-04-28 15:32:00,
2013-04-28 09:37:00,70.2,27.1,29.83,West,273,0.0,0.0,20,0.00,,,0.00,meteohub,2013-04-28 15:37:00,
2013-04-28 09:42:00,70.3,27.3,29.83,West,273,0.0,0.0,20,0.00,,,0.00,meteohub,2013-04-28 15:42:00,
2013-04-28 09:47:00,70.9,28.9,29.83,West,266,0.0,0.0,21,0.00,,,0.00,meteohub,2013-04-28 15:47:00,
2013-04-28 09:52:00,72.0,28.8,29.83,NW,304,0.0,0.0,20,0.00,,,0.00,meteohub,2013-04-28 15:52:00,
2013-04-28 09:58:00,72.1,27.7,29.83,WNW,302,0.0,0.0,19,0.00,,,0.00,meteohub,2013-04-28 15:58:00,
2013-04-28 10:03:00,72.7,30.6,29.83,WNW,290,0.0,0.0,21,0.00,,,0.00,meteohub,2013-04-28 16:03:00,
2013-04-28 10:08:00,72.9,30.6,29.83,WNW,285,0.0,0.0,21,0.00,,,0.00,meteohub,2013-04-28 16:08:00,
2013-04-28 10:13:00,73.2,33.3,29.83,WNW,285,0.0,0.0,23,0.00,,,0.00,meteohub,2013-04-28 16:13:00,
2013-04-28 10:19:00,73.9,33.8,29.83,WNW,285,0.0,0.0,23,0.00,,,0.00,meteohub,2013-04-28 16:19:00,
2013-04-28 10:24:00,74.8,33.4,29.83,WNW,285,0.0,0.0,22,0.00,,,0.00,meteohub,2013-04-28 16:24:00,
2013-04-28 10:29:00,76.5,34.9,29.82,WNW,285,0.0,0.0,22,0.00,,,0.00,meteohub,2013-04-28 16:29:00,
2013-04-28 10:34:00,77.9,33.6,29.82,WNW,285,0.0,0.0,20,0.00,,,0.00,meteohub,2013-04-28 16:34:00,
2013-04-28 10:39:00,79.0,35.8,29.82,West,263,0.0,0.0,21,0.00,,,0.00,meteohub,2013-04-28 16:39:00,
2013-04-28 10:45:00,79.2,37.0,29.82,WSW,258,0.0,0.0,22,0.00,,,0.00,meteohub,2013-04-28 16:45:00,
2013-04-28 10:50:00,79.9,36.5,29.82,East,86,0.0,0.0,21,0.00,,,0.00,meteohub,2013-04-28 16:50:00,
2013-04-28 10:55:00,79.5,37.4,29.81,East,91,0.0,0.0,22,0.00,,,0.00,meteohub,2013-04-28 16:55:00,
2013-04-28 11:00:00,79.9,37.6,29.81,SSW,196,0.0,0.0,22,0.00,,,0.00,meteohub,2013-04-28 17:00:00,
2013-04-28 11:06:00,80.1,36.7,29.81,SSW,205,0.0,0.0,21,0.00,,,0.00,meteohub,2013-04-28 17:06:00,
2013-04-28 11:11:00,80.2,37.9,29.81,SSW,205,0.0,0.0,22,0.00,,,0.00,meteohub,2013-04-28 17:11:00,
2013-04-28 11:16:00,81.0,37.4,29.81,SSW,198,0.0,0.0,21,0.00,,,0.00,meteohub,2013-04-28 17:16:00,
2013-04-28 11:21:00,81.3,37.6,29.81,SSW,199,0.0,0.0,21,0.00,,,0.00,meteohub,2013-04-28 17:21:00,
2013-04-28 11:27:00,82.0,37.0,29.81,SSW,202,0.0,0.0,20,0.00,,,0.00,meteohub,2013-04-28 17:27:00,
2013-04-28 11:32:00,82.6,36.1,29.81,ESE,122,0.0,0.0,19,0.00,,,0.00,meteohub,2013-04-28 17:32:00,
2013-04-28 11:37:00,82.6,36.1,29.81,SSE,157,0.0,0.0,19,0.00,,,0.00,meteohub,2013-04-28 17:37:00,
2013-04-28 11:42:00,82.2,38.5,29.81,SSW,194,0.0,0.0,21,0.00,,,0.00,meteohub,2013-04-28 17:42:00,
2013-04-28 11:48:00,82.6,36.1,29.80,SSW,200,0.0,0.0,19,0.00,,,0.00,meteohub,2013-04-28 17:48:00,
2013-04-28 11:53:00,82.8,34.9,29.80,SSW,206,0.0,0.0,18,0.00,,,0.00,meteohub,2013-04-28 17:53:00,
2013-04-28 11:58:00,82.0,35.8,29.80,SSW,205,0.0,0.0,19,0.00,,,0.00,meteohub,2013-04-28 17:58:00,
2013-04-28 12:03:00,82.6,34.7,29.80,East,85,0.0,0.0,18,0.00,,,0.00,meteohub,2013-04-28 18:03:00,
2013-04-28 12:08:00,82.2,35.8,29.80,East,82,0.0,0.0,19,0.00,,,0.00,meteohub,2013-04-28 18:08:00,
2013-04-28 12:14:00,82.6,34.7,29.79,South,189,0.0,0.0,18,0.00,,,0.00,meteohub,2013-04-28 18:14:00,
2013-04-28 12:19:00,82.9,35.1,29.79,ESE,107,0.0,0.0,18,0.00,,,0.00,meteohub,2013-04-28 18:19:00,
2013-04-28 12:24:00,83.1,33.8,29.78,West,279,0.0,0.0,17,0.00,,,0.00,meteohub,2013-04-28 18:24:00,
2013-04-28 12:30:00,83.3,34.0,29.78,WNW,282,0.0,0.0,17,0.00,,,0.00,meteohub,2013-04-28 18:30:00,
2013-04-28 12:35:00,83.5,32.5,29.78,SSE,154,0.0,0.0,16,0.00,,,0.00,meteohub,2013-04-28 18:35:00,
2013-04-28 12:40:00,83.8,31.3,29.78,ESE,108,0.0,0.0,15,0.00,,,0.00,meteohub,2013-04-28 18:40:00,
2013-04-28 12:45:00,83.7,31.1,29.77,ESE,102,0.0,0.0,15,0.00,,,0.00,meteohub,2013-04-28 18:45:00,
2013-04-28 12:50:00,83.7,31.1,29.77,West,271,0.0,0.0,15,0.00,,,0.00,meteohub,2013-04-28 18:50:00,
2013-04-28 12:56:00,83.8,29.5,29.76,West,267,0.0,0.0,14,0.00,,,0.00,meteohub,2013-04-28 18:56:00,
2013-04-28 13:01:00,84.6,31.8,29.76,SSW,198,0.0,0.0,15,0.00,,,0.00,meteohub,2013-04-28 19:01:00,
2013-04-28 13:06:00,85.3,24.8,29.76,SE,136,0.0,0.0,11,0.00,,,0.00,meteohub,2013-04-28 19:06:00,
2013-04-28 13:11:00,85.5,30.9,29.75,SSE,150,0.0,0.0,14,0.00,,,0.00,meteohub,2013-04-28 19:11:00,
2013-04-28 13:17:00,85.6,27.1,29.75,SW,223,0.0,0.0,12,0.00,,,0.00,meteohub,2013-04-28 19:17:00,
2013-04-28 13:22:00,85.5,27.1,29.75,SSW,209,0.0,0.0,12,0.00,,,0.00,meteohub,2013-04-28 19:22:00,
2013-04-28 13:27:00,85.5,28.9,29.75,WSW,238,0.0,0.0,13,0.00,,,0.00,meteohub,2013-04-28 19:27:00,
2013-04-28 13:32:00,85.5,30.9,29.74,WSW,255,0.0,0.0,14,0.00,,,0.00,meteohub,2013-04-28 19:32:00,
2013-04-28 13:38:00,85.3,32.4,29.74,WNW,283,0.0,0.0,15,0.00,,,0.00,meteohub,2013-04-28 19:38:00,
2013-04-28 13:43:00,84.9,30.4,29.74,West,261,0.0,0.0,14,0.00,,,0.00,meteohub,2013-04-28 19:43:00,
2013-04-28 13:48:00,84.6,26.4,29.74,SSW,209,0.0,0.0,12,0.00,,,0.00,meteohub,2013-04-28 19:48:00,
2013-04-28 13:53:00,84.7,28.4,29.74,SE,143,0.0,0.0,13,0.00,,,0.00,meteohub,2013-04-28 19:53:00,
2013-04-28 13:59:00,84.7,26.4,29.73,SSW,209,0.0,0.0,12,0.00,,,0.00,meteohub,2013-04-28 19:59:00,
2013-04-28 14:04:00,84.7,26.4,29.73,SSW,208,0.0,0.0,12,0.00,,,0.00,meteohub,2013-04-28 20:04:00,
2013-04-28 14:09:00,85.5,28.9,29.73,SSW,201,0.0,0.0,13,0.00,,,0.00,meteohub,2013-04-28 20:09:00,
2013-04-28 14:14:00,85.3,24.8,29.73,WSW,258,0.0,0.0,11,0.00,,,0.00,meteohub,2013-04-28 20:14:00,
2013-04-28 14:20:00,84.7,24.4,29.73,West,268,0.0,0.0,11,0.00,,,0.00,meteohub,2013-04-28 20:20:00,
2013-04-28 14:25:00,85.3,27.0,29.73,West,266,0.0,0.0,12,0.00,,,0.00,meteohub,2013-04-28 20:25:00,
2013-04-28 14:30:00,86.0,25.3,29.72,West,268,0.0,0.0,11,0.00,,,0.00,meteohub,2013-04-28 20:30:00,
2013-04-28 14:35:00,87.1,26.2,29.71,West,268,0.0,0.0,11,0.00,,,0.00,meteohub,2013-04-28 20:35:00,
2013-04-28 14:41:00,88.2,27.0,29.71,West,269,0.0,0.0,11,0.00,,,0.00,meteohub,2013-04-28 20:41:00,
2013-04-28 14:46:00,89.1,27.7,29.71,ENE,71,0.0,0.0,11,0.00,,,0.00,meteohub,2013-04-28 20:46:00,
2013-04-28 14:51:00,89.2,27.9,29.71,ENE,78,0.0,0.0,11,0.00,,,0.00,meteohub,2013-04-28 20:51:00,
2013-04-28 14:56:00,89.1,25.3,29.70,West,263,0.0,0.0,10,0.00,,,0.00,meteohub,2013-04-28 20:56:00,
2013-04-28 15:01:00,88.7,29.7,29.70,NNW,327,0.0,0.0,12,0.00,,,0.00,meteohub,2013-04-28 21:01:00,
2013-04-28 15:07:00,88.3,29.3,29.70,West,262,0.0,0.0,12,0.00,,,0.00,meteohub,2013-04-28 21:07:00,
2013-04-28 15:12:00,88.2,29.1,29.69,West,271,0.0,0.0,12,0.00,,,0.00,meteohub,2013-04-28 21:12:00,
2013-04-28 15:17:00,88.0,24.6,29.70,West,262,0.0,0.0,10,0.00,,,0.00,meteohub,2013-04-28 21:17:00,
2013-04-28 15:22:00,86.5,23.5,29.69,West,262,0.0,0.0,10,0.00,,,0.00,meteohub,2013-04-28 21:22:00,
2013-04-28 15:27:00,87.1,28.4,29.68,West,262,0.0,0.0,12,0.00,,,0.00,meteohub,2013-04-28 21:27:00,
2013-04-28 15:32:00,87.8,24.4,29.68,West,262,0.0,0.0,10,0.00,,,0.00,meteohub,2013-04-28 21:32:00,
2013-04-28 15:37:00,87.6,21.7,29.68,WNW,286,0.0,0.0,9,0.00,,,0.00,meteohub,2013-04-28 21:37:00,
2013-04-28 15:42:00,87.4,24.3,29.68,WNW,285,0.0,0.0,10,0.00,,,0.00,meteohub,2013-04-28 21:42:00,
2013-04-28 15:48:00,87.3,24.1,29.67,WNW,285,0.0,0.0,10,0.00,,,0.00,meteohub,2013-04-28 21:48:00,
2013-04-28 15:53:00,87.6,24.3,29.67,West,273,0.0,0.0,10,0.00,,,0.00,meteohub,2013-04-28 21:53:00,
2013-04-28 15:58:00,87.3,26.4,29.67,West,273,0.0,0.0,11,0.00,,,0.00,meteohub,2013-04-28 21:58:00,
2013-04-28 16:03:00,87.6,26.6,29.67,West,260,0.0,0.0,11,0.00,,,0.00,meteohub,2013-04-28 22:03:00,
2013-04-28 16:08:00,88.5,25.0,29.66,West,260,0.0,0.0,10,0.00,,,0.00,meteohub,2013-04-28 22:08:00,
2013-04-28 16:14:00,88.2,22.3,29.66,West,261,0.0,0.0,9,0.00,,,0.00,meteohub,2013-04-28 22:14:00,
2013-04-28 16:19:00,88.0,24.6,29.66,West,273,0.0,0.0,10,0.00,,,0.00,meteohub,2013-04-28 22:19:00,
2013-04-28 16:24:00,88.2,24.8,29.65,East,99,0.0,0.0,10,0.00,,,0.00,meteohub,2013-04-28 22:24:00,
2013-04-28 16:29:00,87.8,21.9,29.65,SSW,205,0.0,0.0,9,0.00,,,0.00,meteohub,2013-04-28 22:29:00,
2013-04-28 16:35:00,87.4,24.3,29.65,SE,137,0.0,0.0,10,0.00,,,0.00,meteohub,2013-04-28 22:35:00,
2013-04-28 16:40:00,87.4,24.3,29.65,SSE,157,0.0,0.0,10,0.00,,,0.00,meteohub,2013-04-28 22:40:00,
2013-04-28 16:45:00,87.4,24.3,29.65,East,99,0.0,0.0,10,0.00,,,0.00,meteohub,2013-04-28 22:45:00,
2013-04-28 16:50:00,87.3,24.1,29.65,ESE,114,0.0,0.0,10,0.00,,,0.00,meteohub,2013-04-28 22:50:00,
2013-04-28 16:55:00,87.3,24.1,29.65,ESE,109,0.0,0.0,10,0.00,,,0.00,meteohub,2013-04-28 22:55:00,
2013-04-28 17:01:00,87.3,24.1,29.65,West,266,0.0,0.0,10,0.00,,,0.00,meteohub,2013-04-28 23:01:00,
2013-04-28 17:06:00,86.7,21.2,29.64,WSW,250,0.0,0.0,9,0.00,,,0.00,meteohub,2013-04-28 23:06:00,
2013-04-28 17:11:00,86.7,23.7,29.65,West,281,0.0,0.0,10,0.00,,,0.00,meteohub,2013-04-28 23:11:00,
2013-04-28 17:16:00,86.5,23.5,29.64,West,281,0.0,0.0,10,0.00,,,0.00,meteohub,2013-04-28 23:16:00,
2013-04-28 17:22:00,87.1,23.9,29.64,West,281,0.0,0.0,10,0.00,,,0.00,meteohub,2013-04-28 23:22:00,
2013-04-28 17:27:00,87.4,21.7,29.64,WNW,282,0.0,0.0,9,0.00,,,0.00,meteohub,2013-04-28 23:27:00,
2013-04-28 17:32:00,86.7,21.2,29.64,West,278,0.0,0.0,9,0.00,,,0.00,meteohub,2013-04-28 23:32:00,
2013-04-28 17:37:00,86.5,23.5,29.64,SW,229,0.0,0.0,10,0.00,,,0.00,meteohub,2013-04-28 23:37:00,
2013-04-28 17:42:00,86.9,26.1,29.64,SW,225,0.0,0.0,11,0.00,,,0.00,meteohub,2013-04-28 23:42:00,
2013-04-28 17:47:00,87.1,21.4,29.64,West,279,0.0,0.0,9,0.00,,,0.00,meteohub,2013-04-28 23:47:00,
2013-04-28 17:52:00,86.9,23.7,29.64,SW,224,0.0,0.0,10,0.00,,,0.00,meteohub,2013-04-28 23:52:00,
2013-04-28 17:57:00,86.9,23.7,29.64,SW,224,0.0,0.0,10,0.00,,,0.00,meteohub,2013-04-28 23:57:00,
2013-04-28 18:02:00,87.1,21.4,29.63,SSW,211,0.0,0.0,9,0.00,,,0.00,meteohub,2013-04-29 00:02:00,
2013-04-28 18:07:00,86.7,23.7,29.63,SSW,211,0.0,0.0,10,0.00,,,0.00,meteohub,2013-04-29 00:07:00,
2013-04-28 18:12:00,86.2,20.7,29.63,WSW,257,0.0,0.0,9,0.00,,,0.00,meteohub,2013-04-29 00:12:00,
2013-04-28 18:17:00,85.5,22.6,29.63,West,259,0.0,0.0,10,0.00,,,0.00,meteohub,2013-04-29 00:17:00,
2013-04-28 18:22:00,85.3,22.6,29.63,West,269,0.0,0.0,10,0.00,,,0.00,meteohub,2013-04-29 00:22:00,
2013-04-28 18:27:00,85.3,22.6,29.63,West,271,0.0,0.0,10,0.00,,,0.00,meteohub,2013-04-29 00:27:00,
2013-04-28 18:32:00,84.9,22.3,29.63,West,269,0.0,0.0,10,0.00,,,0.00,meteohub,2013-04-29 00:32:00,
2013-04-28 18:37:00,84.7,19.6,29.63,West,268,0.0,0.0,9,0.00,,,0.00,meteohub,2013-04-29 00:37:00,
2013-04-28 18:42:00,84.6,21.9,29.63,West,261,0.0,0.0,10,0.00,,,0.00,meteohub,2013-04-29 00:42:00,
2013-04-28 18:47:00,84.7,19.6,29.63,West,264,0.0,0.0,9,0.00,,,0.00,meteohub,2013-04-29 00:47:00,
2013-04-28 18:52:00,84.9,22.3,29.63,West,264,0.0,0.0,10,0.00,,,0.00,meteohub,2013-04-29 00:52:00,
2013-04-28 18:57:00,84.9,22.3,29.62,WSW,254,0.0,0.0,10,0.00,,,0.00,meteohub,2013-04-29 00:57:00,
2013-04-28 19:02:00,84.6,24.3,29.62,WSW,254,0.0,0.0,11,0.00,,,0.00,meteohub,2013-04-29 01:02:00,
2013-04-28 19:08:00,84.7,22.1,29.62,WSW,254,0.0,0.0,10,0.00,,,0.00,meteohub,2013-04-29 01:08:00,
2013-04-28 19:13:00,84.9,22.3,29.62,WSW,254,0.0,0.0,10,0.00,,,0.00,meteohub,2013-04-29 01:13:00,
2013-04-28 19:18:00,84.9,22.3,29.62,WSW,254,0.0,0.0,10,0.00,,,0.00,meteohub,2013-04-29 01:18:00,
2013-04-28 19:23:00,84.7,22.1,29.62,WSW,254,0.0,0.0,10,0.00,,,0.00,meteohub,2013-04-29 01:23:00,
2013-04-28 19:28:00,84.6,21.9,29.62,WSW,254,0.0,0.0,10,0.00,,,0.00,meteohub,2013-04-29 01:28:00,
2013-04-28 19:34:00,83.8,23.7,29.62,WSW,254,0.0,0.0,11,0.00,,,0.00,meteohub,2013-04-29 01:34:00,
2013-04-28 19:39:00,83.3,21.0,29.62,WSW,254,0.0,0.0,10,0.00,,,0.00,meteohub,2013-04-29 01:39:00,
2013-04-28 19:44:00,82.6,22.8,29.62,WSW,254,0.0,0.0,11,0.00,,,0.00,meteohub,2013-04-29 01:44:00,
2013-04-28 19:49:00,81.9,22.3,29.62,WSW,254,0.0,0.0,11,0.00,,,0.00,meteohub,2013-04-29 01:49:00,
2013-04-28 19:55:00,81.3,23.9,29.62,WSW,254,0.0,0.0,12,0.00,,,0.00,meteohub,2013-04-29 01:55:00,
2013-04-28 20:00:00,80.6,23.4,29.62,WSW,254,0.0,0.0,12,0.00,,,0.00,meteohub,2013-04-29 02:00:00,
2013-04-28 20:05:00,79.9,24.6,29.62,WSW,254,0.0,0.0,13,0.00,,,0.00,meteohub,2013-04-29 02:05:00,
2013-04-28 20:10:00,79.2,25.9,29.62,WSW,254,0.0,0.0,14,0.00,,,0.00,meteohub,2013-04-29 02:10:00,
2013-04-28 20:16:00,78.4,25.3,29.62,WSW,254,0.0,0.0,14,0.00,,,0.00,meteohub,2013-04-29 02:16:00,
2013-04-28 20:21:00,77.7,27.9,29.62,WSW,254,0.0,0.0,16,0.00,,,0.00,meteohub,2013-04-29 02:21:00,
2013-04-28 20:26:00,76.8,30.0,29.62,WSW,254,0.0,0.0,18,0.00,,,0.00,meteohub,2013-04-29 02:26:00,
2013-04-28 20:31:00,76.3,29.7,29.63,WSW,254,0.0,0.0,18,0.00,,,0.00,meteohub,2013-04-29 02:31:00,
2013-04-28 20:37:00,75.6,26.2,29.63,WSW,254,0.0,0.0,16,0.00,,,0.00,meteohub,2013-04-29 02:37:00,
2013-04-28 20:42:00,75.6,27.7,29.63,WSW,254,0.0,0.0,17,0.00,,,0.00,meteohub,2013-04-29 02:42:00,
2013-04-28 20:47:00,75.4,27.5,29.63,WSW,254,0.0,0.0,17,0.00,,,0.00,meteohub,2013-04-29 02:47:00,
2013-04-28 20:52:00,74.8,27.1,29.63,WSW,254,0.0,0.0,17,0.00,,,0.00,meteohub,2013-04-29 02:52:00,
2013-04-28 20:57:00,74.5,28.2,29.63,WSW,254,0.0,0.0,18,0.00,,,0.00,meteohub,2013-04-29 02:57:00,
2013-04-28 21:03:00,74.1,27.9,29.63,WSW,254,0.0,0.0,18,0.00,,,0.00,meteohub,2013-04-29 03:03:00,
2013-04-28 21:08:00,73.9,26.4,29.64,WSW,254,0.0,0.0,17,0.00,,,0.00,meteohub,2013-04-29 03:08:00,
2013-04-28 21:13:00,73.8,27.7,29.64,WSW,254,0.0,0.0,18,0.00,,,0.00,meteohub,2013-04-29 03:13:00,
2013-04-28 21:19:00,73.6,26.1,29.64,WSW,254,0.0,0.0,17,0.00,,,0.00,meteohub,2013-04-29 03:19:00,
2013-04-28 21:24:00,73.2,25.7,29.64,WSW,254,0.0,0.0,17,0.00,,,0.00,meteohub,2013-04-29 03:24:00,
2013-04-28 21:29:00,73.0,25.7,29.64,WSW,254,0.0,0.0,17,0.00,,,0.00,meteohub,2013-04-29 03:29:00,
2013-04-28 21:35:00,72.7,26.8,29.65,WSW,254,0.0,0.0,18,0.00,,,0.00,meteohub,2013-04-29 03:35:00,
2013-04-28 21:40:00,72.3,26.4,29.65,WSW,254,0.0,0.0,18,0.00,,,0.00,meteohub,2013-04-29 03:40:00,
2013-04-28 21:45:00,71.8,26.1,29.65,WSW,254,0.0,0.0,18,0.00,,,0.00,meteohub,2013-04-29 03:45:00,
2013-04-28 21:50:00,71.2,24.3,29.65,WSW,254,0.0,0.0,17,0.00,,,0.00,meteohub,2013-04-29 03:50:00,
2013-04-28 21:56:00,71.1,24.1,29.65,WSW,254,0.0,0.0,17,0.00,,,0.00,meteohub,2013-04-29 03:56:00,
2013-04-28 22:01:00,70.9,23.9,29.65,WSW,254,0.0,0.0,17,0.00,,,0.00,meteohub,2013-04-29 04:01:00,
2013-04-28 22:02:00,70.9,23.9,29.65,WSW,254,0.0,0.0,17,0.00,,,0.00,meteohub,2013-04-29 04:02:00,
2013-04-28 22:03:00,70.9,23.9,29.65,WSW,254,0.0,0.0,17,0.00,,,0.00,meteohub,2013-04-29 04:03:00,
2013-04-28 22:06:00,70.9,23.9,29.65,WSW,254,0.0,0.0,17,0.00,,,0.00,meteohub,2013-04-29 04:06:00,
2013-04-28 22:11:00,70.5,23.5,29.65,WSW,254,0.0,0.0,17,0.00,,,0.00,meteohub,2013-04-29 04:11:00,
2013-04-28 22:16:00,70.5,23.5,29.65,WSW,251,0.0,0.0,17,0.00,,,0.00,meteohub,2013-04-29 04:16:00,
2013-04-28 22:21:00,70.5,23.5,29.65,WSW,249,0.0,0.0,17,0.00,,,0.00,meteohub,2013-04-29 04:21:00,
2013-04-28 22:27:00,70.5,23.5,29.65,WSW,249,0.0,0.0,17,0.00,,,0.00,meteohub,2013-04-29 04:27:00,
2013-04-28 22:32:00,70.5,23.5,29.66,WSW,249,0.0,0.0,17,0.00,,,0.00,meteohub,2013-04-29 04:32:00,
2013-04-28 22:37:00,70.5,23.5,29.65,WSW,249,0.0,0.0,17,0.00,,,0.00,meteohub,2013-04-29 04:37:00,
2013-04-28 22:42:00,70.3,23.5,29.65,WSW,249,0.0,0.0,17,0.00,,,0.00,meteohub,2013-04-29 04:42:00,
2013-04-28 22:47:00,70.2,26.1,29.65,WSW,249,0.0,0.0,19,0.00,,,0.00,meteohub,2013-04-29 04:47:00,
2013-04-28 22:53:00,69.6,26.8,29.65,WSW,249,0.0,0.0,20,0.00,,,0.00,meteohub,2013-04-29 04:53:00,
2013-04-28 22:58:00,68.7,26.1,29.65,WSW,249,0.0,0.0,20,0.00,,,0.00,meteohub,2013-04-29 04:58:00,
2013-04-28 23:03:00,68.5,23.4,29.65,WSW,249,0.0,0.0,18,0.00,,,0.00,meteohub,2013-04-29 05:03:00,
2013-04-28 23:09:00,68.2,25.5,29.65,WSW,249,0.0,0.0,20,0.00,,,0.00,meteohub,2013-04-29 05:09:00,
2013-04-28 23:14:00,67.6,26.2,29.65,WSW,249,0.0,0.0,21,0.00,,,0.00,meteohub,2013-04-29 05:14:00,
2013-04-28 23:19:00,66.9,27.9,29.65,WSW,249,0.0,0.0,23,0.00,,,0.00,meteohub,2013-04-29 05:19:00,
2013-04-28 23:24:00,66.6,27.7,29.65,WSW,249,0.0,0.0,23,0.00,,,0.00,meteohub,2013-04-29 05:24:00,
2013-04-28 23:30:00,66.0,23.7,29.65,WSW,249,0.0,0.0,20,0.00,,,0.00,meteohub,2013-04-29 05:30:00,
2013-04-28 23:35:00,66.0,23.7,29.66,WSW,249,0.0,0.0,20,0.00,,,0.00,meteohub,2013-04-29 05:35:00,
2013-04-28 23:40:00,65.8,22.5,29.66,WSW,249,0.0,0.0,19,0.00,,,0.00,meteohub,2013-04-29 05:40:00,
2013-04-28 23:45:00,65.8,21.2,29.66,WSW,249,0.0,0.0,18,0.00,,,0.00,meteohub,2013-04-29 05:45:00,
2013-04-28 23:51:00,65.8,27.0,29.67,WSW,249,0.0,0.0,23,0.00,,,0.00,meteohub,2013-04-29 05:51:00,
2013-04-28 23:56:00,65.5,27.7,29.67,WSW,249,0.0,0.0,24,0.00,,,0.00,meteohub,2013-04-29 05:56:00,